This is the latest recevied weather packets stored in our database for station/object KO4APQ. If no packets are shown the sender has not sent any weather packets the latest 10 day(s).
| Time | Temp. | Humidity | Pressure | Rain* | Wind** | Luminosity | Snow |
|---|---|---|---|---|---|---|---|
| 1777673519 | 17.78° C | 58% | 1012.7 hPa | 0 mm | - | 140 W/m² | - |
| 1777673217 | 18.33° C | 58% | 1012.8 hPa | 0 mm | - | 127 W/m² | - |
| 1777672914 | 18.33° C | 58% | 1012.6 hPa | 0 mm | - | 131 W/m² | - |
| 1777672610 | 18.33° C | 56% | 1012.8 hPa | 0 mm | - | 153 W/m² | - |
| 1777672001 | 18.33° C | 52% | 1012.7 hPa | 0 mm | - | 240 W/m² | - |
| 1777671394 | 18.89° C | 55% | 1012.9 hPa | 0 mm | - | 262 W/m² | - |
| 1777671089 | 18.89° C | 53% | 1013 hPa | 0 mm | - | 298 W/m² | - |
| 1777670786 | 18.89° C | 56% | 1012.8 hPa | 0 mm | - | 278 W/m² | - |
| 1777670483 | 18.89° C | 54% | 1013 hPa | 0 mm | - | 254 W/m² | - |
| 1777670179 | 18.89° C | 55% | 1013.1 hPa | 0 mm | - | 250 W/m² | - |
| 1777669878 | 18.89° C | 53% | 1013.1 hPa | 0 mm | - | 297 W/m² | - |
| 1777669271 | 18.89° C | 52% | 1013.3 hPa | 0 mm | - | 389 W/m² | - |
| 1777668967 | 18.89° C | 51% | 1013.3 hPa | 0 mm | - | 315 W/m² | - |
| 1777668665 | 20° C | 51% | 1013.3 hPa | 0 mm | - | 271 W/m² | - |
| 1777668361 | 19.44° C | 50% | 1013.4 hPa | 0 mm | - | 385 W/m² | - |
| 1777668057 | 20° C | 48% | 1013.3 hPa | 0 mm | - | 326 W/m² | - |
| 1777667754 | 20° C | 49% | 1013.5 hPa | 0 mm | - | 425 W/m² | - |
| 1777667148 | 19.44° C | 53% | 1013.5 hPa | 0 mm | - | 396 W/m² | - |
| 1777666845 | 18.89° C | 54% | 1013.6 hPa | 0 mm | - | 442 W/m² | - |
| 1777666542 | 18.89° C | 52% | 1013.6 hPa | 0 mm | - | 389 W/m² | - |
| 1777666238 | 18.89° C | 51% | 1013.6 hPa | 0 mm | - | 414 W/m² | - |
| 1777665633 | 18.89° C | 51% | 1013.6 hPa | 0 mm | - | 330 W/m² | - |
| 1777665330 | 19.44° C | 50% | 1013.6 hPa | 0 mm | - | 333 W/m² | - |
| 1777663814 | 18.89° C | 50% | 1014.3 hPa | 0 mm | - | 440 W/m² | - |
| 1777662602 | 18.33° C | 50% | 1014.5 hPa | 0 mm | - | 661 W/m² | - |
* Rain latest hour (hover to see other rain measurements)
** Current wind speed in m/s (hover to see current wind gust speed)